createdAt,value
2023-01-23T00:03:33.657Z,9.6
2023-01-23T00:13:34.773Z,19
2023-01-23T00:23:35.836Z,10.7
2023-01-23T00:33:36.917Z,9.1
2023-01-23T00:43:38.311Z,18.4
2023-01-23T00:53:39.181Z,9.8
2023-01-23T01:03:40.287Z,9.1
2023-01-23T01:13:41.531Z,12.4
2023-01-23T01:23:42.723Z,11
2023-01-23T01:33:44.027Z,10.8
2023-01-23T01:43:45.363Z,6.6
2023-01-23T01:53:46.720Z,11.6
2023-01-23T02:03:48.060Z,9.3
2023-01-23T02:13:49.278Z,17.5
2023-01-23T02:23:50.626Z,3.6
2023-01-23T02:33:51.933Z,11.2
2023-01-23T02:43:53.284Z,8.4
2023-01-23T02:53:54.732Z,3.8
2023-01-23T03:03:56.155Z,4.2
2023-01-23T03:13:57.564Z,2.6
2023-01-23T03:23:59.019Z,3.2
2023-01-23T03:34:00.463Z,2.6
2023-01-23T03:44:01.921Z,4
2023-01-23T03:54:03.334Z,1.9
2023-01-23T04:04:04.804Z,4.2
2023-01-23T04:14:06.179Z,1.8
2023-01-23T04:24:07.567Z,0.5
2023-01-23T04:34:08.944Z,0.4
2023-01-23T04:44:10.362Z,0.3
2023-01-23T04:54:11.649Z,0.4
2023-01-23T05:04:12.971Z,1.1
2023-01-23T05:14:14.259Z,0.3
2023-01-23T05:24:15.496Z,0.5
2023-01-23T05:34:16.733Z,2
2023-01-23T05:44:17.901Z,0.7
2023-01-23T05:54:19.048Z,1.1
2023-01-23T06:04:20.204Z,0.3
2023-01-23T06:14:21.326Z,0.3
2023-01-23T06:24:22.456Z,0.7
2023-01-23T06:34:23.572Z,0.9
2023-01-23T06:44:24.709Z,2.2
2023-01-23T06:54:25.741Z,1.6
2023-01-23T07:04:26.790Z,2.9
2023-01-23T07:14:27.831Z,2.9
2023-01-23T07:24:28.754Z,0.6
2023-01-23T07:34:29.841Z,0.4
2023-01-23T07:44:30.853Z,0.5
2023-01-23T07:54:31.803Z,0.3
2023-01-23T08:04:32.800Z,0.8
2023-01-23T08:14:33.794Z,0.9
2023-01-23T08:24:34.764Z,0.6
2023-01-23T08:34:36.025Z,0.7
2023-01-23T08:44:36.834Z,1.9
2023-01-23T08:54:37.845Z,1
2023-01-23T09:04:38.735Z,1
2023-01-23T09:14:39.713Z,1.6
2023-01-23T09:24:40.645Z,1.4
2023-01-23T09:34:41.616Z,3.5
2023-01-23T09:44:42.609Z,2.5
2023-01-23T09:54:43.527Z,1.3
2023-01-23T10:04:44.398Z,2.2
2023-01-23T10:14:45.299Z,2.6
2023-01-23T10:24:46.174Z,1.4
2023-01-23T10:34:47.091Z,2
2023-01-23T10:44:47.859Z,2.2
2023-01-23T10:54:48.609Z,3.5
2023-01-23T11:04:49.366Z,4
2023-01-23T11:14:50.149Z,3.7
2023-01-23T11:24:50.983Z,3.8
2023-01-23T11:34:51.893Z,3.8
2023-01-23T11:44:52.305Z,2.9
2023-01-23T11:54:53.088Z,2.2
2023-01-23T12:04:53.914Z,4
2023-01-23T12:14:54.557Z,2.8
2023-01-23T12:24:55.360Z,3.6
2023-01-23T12:34:56.088Z,3.6
2023-01-23T12:44:57.535Z,2.2
2023-01-23T12:54:57.609Z,2.7
2023-01-23T13:04:58.480Z,2.9
2023-01-23T13:15:12.667Z,1.8
2023-01-23T13:25:00.105Z,2.7
2023-01-23T13:35:00.814Z,2.9
2023-01-23T13:45:01.604Z,1.3
2023-01-23T14:25:04.790Z,1.6
2023-01-23T14:35:05.468Z,1
2023-01-23T14:45:06.531Z,1.2
2023-01-23T14:55:33.139Z,1.2
2023-01-23T15:05:07.740Z,1.4
2023-01-23T15:15:08.523Z,1.6
2023-01-23T15:25:09.448Z,1.8
2023-01-23T15:35:10.087Z,1.4
2023-01-23T15:45:11.136Z,1.6
2023-01-23T15:55:11.911Z,1.1
2023-01-23T16:05:12.939Z,1.4
2023-01-23T16:15:13.876Z,1.1
2023-01-23T16:25:14.949Z,1.3
2023-01-23T16:35:15.833Z,1.5
2023-01-23T16:45:16.851Z,1.2
2023-01-23T16:55:18.137Z,2.4
2023-01-23T17:05:19.130Z,1.4
2023-01-23T17:15:20.351Z,1.2
2023-01-23T17:25:21.130Z,1.6
2023-01-23T17:35:22.564Z,3.1
2023-01-23T17:45:23.605Z,1.8
2023-01-23T17:55:24.252Z,1.9
2023-01-23T18:05:25.372Z,1.5
2023-01-23T18:15:27.336Z,1.2
2023-01-23T18:25:27.590Z,0.7
2023-01-23T18:35:28.620Z,1.3
2023-01-23T18:45:31.528Z,1
2023-01-23T18:55:30.737Z,0.8
2023-01-23T19:05:31.949Z,0.7
2023-01-23T19:15:33.052Z,0.8
2023-01-23T19:25:34.308Z,0.7
2023-01-23T19:35:35.309Z,0.5
2023-01-23T19:45:36.415Z,0.8
2023-01-23T19:55:37.555Z,0.8
2023-01-23T20:05:38.741Z,0.8
2023-01-23T20:15:39.985Z,0.9
2023-01-23T20:25:41.104Z,0.6
2023-01-23T20:35:42.295Z,0.9
2023-01-23T20:45:43.441Z,0.7
2023-01-23T20:55:44.514Z,1.3
2023-01-23T21:05:45.568Z,1.1
2023-01-23T21:15:46.664Z,0.7
2023-01-23T21:25:47.699Z,0.9
2023-01-23T21:35:48.686Z,1.2
2023-01-23T21:45:49.697Z,0.8
2023-01-23T21:55:50.680Z,0.6
2023-01-23T22:05:51.785Z,1.4
2023-01-23T22:15:52.856Z,1
2023-01-23T22:25:53.877Z,1.4
2023-01-23T22:35:56.079Z,1.1
2023-01-23T22:45:55.927Z,0.6
2023-01-23T22:55:56.969Z,0.8
2023-01-23T23:05:58.003Z,0.9
2023-01-23T23:15:59.004Z,1.8
2023-01-23T23:26:00.047Z,0.6
2023-01-23T23:36:01.065Z,1
2023-01-23T23:46:01.989Z,0.7
2023-01-23T23:56:02.935Z,0.4
